createdAt,value
2023-01-27T00:02:31.865Z,1.14
2023-01-27T00:07:34.984Z,1.19
2023-01-27T00:12:56.892Z,1.22
2023-01-27T00:17:59.795Z,1.23
2023-01-27T00:23:20.077Z,1.26
2023-01-27T00:28:25.550Z,1.26
2023-01-27T00:33:29.262Z,1.28
2023-01-27T00:38:34.076Z,1.30
2023-01-27T00:43:38.247Z,1.31
2023-01-27T00:48:41.197Z,1.30
2023-01-27T00:53:43.921Z,1.32
2023-01-27T00:58:48.120Z,1.32
2023-01-27T01:03:50.944Z,1.33
2023-01-27T01:08:53.803Z,1.31
2023-01-27T01:13:57.929Z,1.31
2023-01-27T01:19:00.727Z,1.34
2023-01-27T01:24:03.485Z,1.36
2023-01-27T01:29:07.624Z,1.35
2023-01-27T01:34:11.028Z,1.36
2023-01-27T01:39:13.823Z,1.36
2023-01-27T01:44:22.553Z,1.38
2023-01-27T01:49:30.806Z,1.38
2023-01-27T01:54:37.081Z,1.39
2023-01-27T01:59:45.418Z,1.39
2023-01-27T02:04:52.105Z,1.38
2023-01-27T02:09:57.249Z,1.36
2023-01-27T02:15:01.615Z,1.36
2023-01-27T02:20:11.778Z,1.37
2023-01-27T02:25:20.696Z,1.35
2023-01-27T02:30:25.469Z,1.31
2023-01-27T02:35:37.285Z,1.32
2023-01-27T02:40:41.512Z,1.33
2023-01-27T02:45:46.965Z,1.38
2023-01-27T02:50:50.020Z,1.41
2023-01-27T02:55:52.867Z,1.34
2023-01-27T03:00:56.978Z,1.30
2023-01-27T03:05:59.760Z,1.29
2023-01-27T03:11:02.626Z,1.27
2023-01-27T03:16:26.056Z,1.30
2023-01-27T03:21:30.402Z,1.34
2023-01-27T03:26:33.326Z,1.30
2023-01-27T03:31:38.083Z,1.26
2023-01-27T03:36:58.833Z,1.29
2023-01-27T03:42:19.015Z,1.31
2023-01-27T03:47:24.256Z,1.33
2023-01-27T03:52:27.783Z,1.32
2023-01-27T03:57:30.553Z,1.32
2023-01-27T04:02:53.152Z,1.34
2023-01-27T04:07:56.066Z,1.37
2023-01-27T04:20:08.656Z,1.33
2023-01-27T04:25:13.317Z,1.32
2023-01-27T04:30:16.595Z,1.34
2023-01-27T04:35:23.358Z,1.32
2023-01-27T04:40:28.036Z,1.33
2023-01-27T04:45:30.798Z,1.35
2023-01-27T04:50:35.130Z,1.34
2023-01-27T04:55:38.124Z,1.26
2023-01-27T05:00:41.090Z,1.27
2023-01-27T05:05:45.143Z,1.30
2023-01-27T05:10:47.892Z,1.32
2023-01-27T05:15:50.605Z,1.32
2023-01-27T05:20:54.752Z,1.30
2023-01-27T05:25:57.626Z,1.31
2023-01-27T05:31:03.786Z,1.32
2023-01-27T05:36:09.894Z,1.33
2023-01-27T05:41:14.658Z,1.30
2023-01-27T05:46:19.546Z,1.33
2023-01-27T05:51:26.146Z,1.28
2023-01-27T05:56:29.087Z,1.30
2023-01-27T06:01:33.635Z,1.31
2023-01-27T06:06:37.753Z,1.34
2023-01-27T06:11:40.507Z,1.35
2023-01-27T06:16:47.215Z,1.34
2023-01-27T06:21:51.561Z,1.35
2023-01-27T06:26:54.387Z,1.36
2023-01-27T06:31:57.204Z,1.36
2023-01-27T06:37:01.383Z,1.35
2023-01-27T06:42:05.433Z,1.34
2023-01-27T06:47:08.314Z,1.33
2023-01-27T06:52:12.492Z,1.35
2023-01-27T06:57:16.310Z,1.33
2023-01-27T07:02:19.122Z,1.35
2023-01-27T07:07:23.230Z,1.38
2023-01-27T07:12:25.923Z,1.38
2023-01-27T07:17:28.665Z,1.39
2023-01-27T07:22:32.911Z,1.41
2023-01-27T07:27:35.818Z,1.42
2023-01-27T07:32:38.665Z,1.43
2023-01-27T07:37:42.769Z,1.45
2023-01-27T07:42:45.548Z,1.50
2023-01-27T07:47:48.387Z,1.54
2023-01-27T07:52:52.444Z,1.61
2023-01-27T07:57:55.534Z,1.64
2023-01-27T08:02:59.594Z,1.70
2023-01-27T08:08:04.707Z,1.74
2023-01-27T08:13:07.541Z,1.81
2023-01-27T08:18:10.715Z,1.91
2023-01-27T08:23:14.778Z,1.90
2023-01-27T08:28:17.921Z,1.96
2023-01-27T08:33:21.470Z,2.03
2023-01-27T08:38:25.685Z,2.04
2023-01-27T08:43:28.632Z,2.09
2023-01-27T08:48:32.351Z,2.26
2023-01-27T08:53:37.526Z,2.43
2023-01-27T08:58:40.584Z,2.50
2023-01-27T09:03:43.389Z,2.50
2023-01-27T09:09:10.975Z,2.56
2023-01-27T09:14:14.948Z,2.67
2023-01-27T09:19:18.319Z,2.75
2023-01-27T09:24:23.179Z,2.76
2023-01-27T09:29:26.081Z,2.81
2023-01-27T09:34:28.988Z,2.84
2023-01-27T09:39:36.935Z,2.89
2023-01-27T09:45:10.619Z,2.97
2023-01-27T09:50:29.465Z,2.99
2023-01-27T09:55:38.758Z,2.99
2023-01-27T10:00:55.942Z,3.09
2023-01-27T10:06:39.174Z,3.12
2023-01-27T10:11:56.369Z,3.23
2023-01-27T10:17:15.703Z,3.24
2023-01-27T10:22:25.491Z,3.23
2023-01-27T10:27:37.138Z,3.22
2023-01-27T10:32:45.625Z,3.19
2023-01-27T10:37:57.341Z,3.17
2023-01-27T10:43:07.293Z,3.13
2023-01-27T10:48:26.881Z,3.09
2023-01-27T10:53:39.543Z,3.29
2023-01-27T10:58:50.765Z,3.57
2023-01-27T11:03:57.777Z,3.80
2023-01-27T11:09:06.631Z,3.89
2023-01-27T11:14:17.581Z,3.79
2023-01-27T11:19:31.893Z,3.66
2023-01-27T11:24:43.581Z,3.70
2023-01-27T11:29:55.250Z,3.85
2023-01-27T11:35:03.788Z,4.05
2023-01-27T11:40:17.002Z,4.06
2023-01-27T11:45:22.184Z,4.10
2023-01-27T11:50:30.443Z,4.03
2023-01-27T11:55:38.331Z,3.96
2023-01-27T12:00:46.271Z,4.00
2023-01-27T12:05:56.055Z,4.00
2023-01-27T12:11:18.340Z,4.18
2023-01-27T12:16:25.806Z,4.23
2023-01-27T12:21:38.881Z,4.08
2023-01-27T12:26:45.109Z,4.03
2023-01-27T12:31:54.037Z,3.94
2023-01-27T12:36:58.128Z,4.00
2023-01-27T12:42:00.991Z,3.98
2023-01-27T12:47:18.542Z,3.98
2023-01-27T12:52:22.870Z,3.90
2023-01-27T12:57:34.298Z,3.85
2023-01-27T13:02:39.515Z,3.75
2023-01-27T13:07:46.753Z,3.78
2023-01-27T13:12:51.728Z,3.75
2023-01-27T13:17:57.924Z,3.71
2023-01-27T13:23:04.223Z,3.55
2023-01-27T13:28:09.634Z,3.66
2023-01-27T13:33:28.211Z,3.73
2023-01-27T13:38:38.677Z,3.71
2023-01-27T13:43:44.716Z,3.77
2023-01-27T13:48:53.278Z,3.77
2023-01-27T13:54:00.523Z,3.66
2023-01-27T13:59:15.577Z,3.69
2023-01-27T14:04:43.593Z,3.68
2023-01-27T14:09:58.767Z,3.73
2023-01-27T14:15:15.762Z,3.71
2023-01-27T14:20:33.342Z,3.66
2023-01-27T14:25:48.001Z,3.53
2023-01-27T14:30:56.482Z,3.51
2023-01-27T14:36:10.663Z,3.52
2023-01-27T14:41:23.010Z,3.47
2023-01-27T14:46:42.846Z,3.52
2023-01-27T14:51:51.376Z,3.42
2023-01-27T14:57:22.998Z,3.36
2023-01-27T15:02:43.358Z,3.30
2023-01-27T15:07:57.207Z,3.46
2023-01-27T15:13:33.148Z,3.38
2023-01-27T15:18:57.365Z,3.33
2023-01-27T15:24:25.627Z,3.22
2023-01-27T15:29:31.641Z,3.15
2023-01-27T15:34:34.470Z,3.10
2023-01-27T15:40:04.016Z,3.04
2023-01-27T15:45:27.762Z,3.09
2023-01-27T15:50:33.285Z,3.07
2023-01-27T15:55:38.600Z,3.01
2023-01-27T16:00:50.091Z,2.94
2023-01-27T16:05:56.557Z,2.93
2023-01-27T16:11:23.868Z,2.90
2023-01-27T16:16:36.113Z,2.89
2023-01-27T16:21:47.559Z,2.88
2023-01-27T16:26:55.172Z,2.83
2023-01-27T16:32:04.672Z,2.81
2023-01-27T16:37:18.870Z,2.79
2023-01-27T16:42:29.525Z,2.80
2023-01-27T16:47:42.495Z,2.77
2023-01-27T16:52:46.849Z,2.78
2023-01-27T16:57:50.131Z,2.74
2023-01-27T17:02:59.127Z,2.72
2023-01-27T17:08:04.827Z,2.71
2023-01-27T17:13:26.038Z,2.70
2023-01-27T17:18:37.547Z,2.70
2023-01-27T17:23:44.520Z,2.69
2023-01-27T17:28:48.700Z,2.68
2023-01-27T17:34:00.826Z,2.69
2023-01-27T17:39:03.615Z,2.70
2023-01-27T17:44:13.075Z,2.73
2023-01-27T17:49:19.038Z,2.76
2023-01-27T17:54:25.992Z,2.74
2023-01-27T17:59:29.602Z,2.75
2023-01-27T18:04:39.835Z,2.74
2023-01-27T18:09:47.288Z,2.75
2023-01-27T18:14:50.070Z,2.74
2023-01-27T18:19:56.058Z,2.73
2023-01-27T18:25:01.477Z,2.73
2023-01-27T18:30:11.355Z,2.73
2023-01-27T18:35:26.125Z,2.73
2023-01-27T18:40:31.754Z,2.71
2023-01-27T18:45:34.644Z,2.72
2023-01-27T18:50:43.179Z,2.69
2023-01-27T18:55:46.098Z,2.69
2023-01-27T19:00:51.110Z,2.67
2023-01-27T19:05:55.774Z,2.65
2023-01-27T19:10:58.587Z,2.63
2023-01-27T19:16:01.490Z,2.64
2023-01-27T19:21:06.336Z,2.61
2023-01-27T19:26:16.712Z,2.61
2023-01-27T19:31:21.101Z,2.62
2023-01-27T19:36:28.167Z,2.61
2023-01-27T19:41:30.713Z,2.57
2023-01-27T19:46:34.992Z,2.56
2023-01-27T19:51:39.315Z,2.57
2023-01-27T19:56:42.212Z,2.55
2023-01-27T20:01:45.036Z,2.52
2023-01-27T20:06:49.199Z,2.53
2023-01-27T20:11:52.066Z,2.53
2023-01-27T20:16:54.876Z,2.53
2023-01-27T20:22:01.435Z,2.54
2023-01-27T20:27:04.219Z,2.54
2023-01-27T20:32:09.483Z,2.54
2023-01-27T20:37:13.634Z,2.54
2023-01-27T20:42:16.429Z,2.52
2023-01-27T20:47:19.226Z,2.52
2023-01-27T20:52:25.020Z,2.52
2023-01-27T20:57:31.052Z,2.52
2023-01-27T21:02:33.930Z,2.50
2023-01-27T21:07:38.115Z,2.45
2023-01-27T21:12:40.919Z,2.45
2023-01-27T21:17:43.731Z,2.45
2023-01-27T21:22:47.980Z,2.43
2023-01-27T21:27:50.838Z,2.42
2023-01-27T21:32:53.961Z,2.40
2023-01-27T21:37:58.227Z,2.37
2023-01-27T21:43:18.662Z,2.39
2023-01-27T21:48:21.384Z,2.38
2023-01-27T21:53:26.659Z,2.35
2023-01-27T21:58:29.471Z,2.34
2023-01-27T22:03:32.282Z,2.34
2023-01-27T22:08:37.315Z,2.31
2023-01-27T22:13:40.431Z,2.32
2023-01-27T22:18:43.294Z,2.33
2023-01-27T22:23:47.885Z,2.32
2023-01-27T22:28:50.655Z,2.27
2023-01-27T22:33:54.352Z,2.30
2023-01-27T22:38:58.591Z,2.27
2023-01-27T22:44:01.294Z,2.25
2023-01-27T22:49:04.215Z,2.21
2023-01-27T22:54:10.443Z,2.17
2023-01-27T22:59:13.977Z,2.17
2023-01-27T23:04:16.787Z,2.08
2023-01-27T23:09:20.858Z,2.15
2023-01-27T23:14:23.975Z,2.12
2023-01-27T23:19:26.738Z,2.11
2023-01-27T23:24:30.962Z,2.10
2023-01-27T23:29:33.790Z,2.13
2023-01-27T23:34:36.609Z,2.10
2023-01-27T23:39:45.639Z,2.06
2023-01-27T23:44:48.783Z,2.07
2023-01-27T23:49:53.912Z,2.04
2023-01-27T23:54:58.093Z,2.07
